View Data : Daily Precipitation Reports By State
 
Iowa Daily Precipitation Reports
Display Date:
Showing 65 Records.    
DateTimeStation NumberStation NameTotal Precip in.New Snow in.Total Snow in.StateCountyView
11/26/2014  5:00 AM  IA-FY-2  Oelwein 0.8 WNW  0.00 0.0 T IAFayette  View
11/26/2014  5:00 AM  IA-LN-3  Ely 0.5 SE  0.00 0.0 0.2 IALinn  View
11/26/2014  5:10 AM  IA-BN-3  Ogden 1.6 SE  0.14 2.1 2.1 IABoone  View
11/26/2014  5:25 AM  IA-MS-2  Marshalltown 1.4 ENE  0.00 0.0 NA IAMarshall  View
11/26/2014  5:30 AM  IA-ST-4  Davenport 0.9 SSW  0.00 0.0 2.0 IAScott  View
11/26/2014  5:30 AM  IA-ST-23  Davenport 2.1 SW  0.00 0.0 2.0 IAScott  View
11/26/2014  6:00 AM  IA-BH-6  Waterloo 1.9 SSE  0.00 0.0 1.0 IABlack Hawk  View
11/26/2014  6:00 AM  IA-BC-5  Walker 3.5 NE  0.00 0.0 NA IABuchanan  View
11/26/2014  6:00 AM  IA-HN-2  Britt 0.7 N  0.19 3.0 NA IAHancock  View
11/26/2014  6:00 AM  IA-MR-1  Albia 5.4 ENE  0.00 0.0 NA IAMonroe  View
11/26/2014  6:00 AM  IA-SX-5  Alton 0.7 ESE  0.07 1.0 1.0 IASioux  View
11/26/2014  6:00 AM  IA-WB-3  Fort Dodge 1.6 ENE  0.25 3.2 NA IAWebster  View
11/26/2014  6:13 AM  IA-BN-12  Boone 4.5 WSW  0.21 2.0 2.0 IABoone  View
11/26/2014  6:30 AM  IA-ST-1  Le Claire 1.8 NNE  0.00 0.0 0.5 IAScott  View
11/26/2014  6:30 AM  IA-ST-8  Bettendorf 2.2 SE  0.00 0.0 1.0 IAScott  View
11/26/2014  7:00 AM  IA-CG-7  Swaledale 0.0 WNW  NA NA NA IACerro Gordo  View
11/26/2014  7:00 AM  IA-CK-3  Cleghorn 2.5 NNE  0.25 2.6 2.5 IACherokee  View
11/26/2014  7:00 AM  IA-CW-2  New Hampton 0.4 SW  0.00 0.0 2.5 IAChickasaw  View
11/26/2014  7:00 AM  IA-CL-2  Osceola 2.5 WSW  0.14 2.2 2.2 IAClarke  View
11/26/2014  7:00 AM  IA-CN-5  Camanche 1.2 W  0.00 0.0 NA IAClinton  View
11/26/2014  7:00 AM  IA-CN-8  Delmar 2.3 NW  0.00 0.0 0.5 IAClinton  View
11/26/2014  7:00 AM  IA-DL-1  Dallas Center 4.6 ENE  0.20 NA NA IADallas  View
11/26/2014  7:00 AM  IA-DM-7  Burlington 6.5 SSW  0.00 0.0 NA IADes Moines  View
11/26/2014  7:00 AM  IA-DM-8  Burlington 0.8 SSE  0.00 NA NA IADes Moines  View
11/26/2014  7:00 AM  IA-FY-3  Waucoma 3.2 S  0.00 NA NA IAFayette  View
11/26/2014  7:00 AM  IA-HM-1  Webster City 0.5 NW  0.14 2.0 NA IAHamilton  View
11/26/2014  7:00 AM  IA-HR-2  Woodbine 7.9 NNW  T T NA IAHarrison  View
11/26/2014  7:00 AM  IA-HR-3  Logan 1.5 NNW  0.02 0.0 0.0 IAHarrison  View
11/26/2014  7:00 AM  IA-HR-4  Persia 2.0 S  0.02 NA NA IAHarrison  View
11/26/2014  7:00 AM  IA-JH-1  Solon 0.3 ESE  0.00 0.0 NA IAJohnson  View
11/26/2014  7:00 AM  IA-JH-9  Kalona 7.3 NNW  0.00 0.0 NA IAJohnson  View
11/26/2014  7:00 AM  IA-JH-10  Coralville 1.8 NW  0.00 0.0 0.5 IAJohnson  View
11/26/2014  7:00 AM  IA-LN-4  Cedar Rapids 3.4 NW  0.00 0.0 T IALinn  View
11/26/2014  7:00 AM  IA-LN-7  Central City 6.7 W  0.00 0.0 NA IALinn  View
11/26/2014  7:00 AM  IA-LN-9  Marion 1.2 NE  0.00 0.0 0.5 IALinn  View
11/26/2014  7:00 AM  IA-LY-2  Lester 0.2 E  0.10 2.0 2.0 IALyon  View
11/26/2014  7:00 AM  IA-MH-6  Rose Hill 4.0 NNW  0.00 0.0 NA IAMahaska  View
11/26/2014  7:00 AM  IA-MS-5  Marshalltown 1.7 NW  0.00 0.0 NA IAMarshall  View
11/26/2014  7:00 AM  IA-PK-3  Des Moines 4.5 WNW  0.05 5.0 5.0 IAPolk  View
11/26/2014  7:00 AM  IA-PK-14  Ankeny 2.3 WNW  0.15 2.7 2.7 IAPolk  View
11/26/2014  7:00 AM  IA-PK-21  Johnston 3.7 NNW  0.23 2.6 3.0 IAPolk  View
11/26/2014  7:00 AM  IA-PK-37  Windsor Heights 0.8 SE  0.16 2.8 3.0 IAPolk  View
11/26/2014  7:00 AM  IA-PK-73  Des Moines 4.1 N  0.14 2.0 2.0 IAPolk  View
11/26/2014  7:00 AM  IA-PK-74  Saylorville 2.6 SSW  0.10 2.0 2.0 IAPolk  View
11/26/2014  7:00 AM  IA-PT-2  Council Bluffs 3.4 NNE  0.03 0.0 NA IAPottawattamie  View
11/26/2014  7:00 AM  IA-SC-2  Odebolt 4.8 E  0.11 1.3 1.3 IASac  View
11/26/2014  7:00 AM  IA-ST-3  Park View 0.2 WSW  T T 2.0 IAScott  View
11/26/2014  7:00 AM  IA-SR-2  Ames 1.5 NNE  0.12 2.3 NA IAStory  View
11/26/2014  7:00 AM  IA-SR-17  Ames 0.9 ENE  NA 2.0 2.0 IAStory  View
11/26/2014  7:00 AM  IA-SR-19  Gilbert 0.2 W  0.08 1.8 NA IAStory  View
11/26/2014  7:00 AM  IA-TY-2  New Market 4.7 N  0.13 0.7 0.7 IATaylor  View
11/26/2014  7:00 AM  IA-WR-6  Norwalk 4.0 S  0.35 3.4 3.4 IAWarren  View
11/26/2014  7:00 AM  IA-WS-2  Ainsworth 7.4 N  0.00 0.0 NA IAWashington  View
11/26/2014  7:00 AM  IA-WB-5  Badger 3.1 NW  0.19 3.2 NA IAWebster  View
11/26/2014  8:00 AM  IA-BN-9  Madrid 0.4 SE  0.28 3.0 3.0 IABoone  View
11/26/2014  8:00 AM  IA-CT-7  Marquette 0.2 NNE  0.00 0.0 NA IAClayton  View
11/26/2014  8:00 AM  IA-GT-3  Bagley 0.1 W  0.04 1.4 1.5 IAGuthrie  View
11/26/2014  8:00 AM  IA-PT-13  Council Bluffs 2.1 SSE  0.05 NA NA IAPottawattamie  View
11/26/2014  8:00 AM  IA-ST-24  Eldridge 0.6 ESE  T NA 2.0 IAScott  View
11/26/2014  8:00 AM  IA-SX-6  Orange City 2.5 S  0.16 1.5 1.5 IASioux  View
11/26/2014  8:00 AM  IA-SR-13  Nevada 0.8 NW  0.08 1.2 NA IAStory  View
11/26/2014  8:00 AM  IA-SR-29  Ames 2.5 W  0.08 NA NA IAStory  View
11/26/2014  10:00 AM  IA-CS-5  Atlantic 7.1 NNE  0.08 1.0 NA IACass  View
11/26/2014  10:00 AM  IA-WH-1  Decorah 7.9 ENE  0.00 0.0 2.0 IAWinneshiek  View
11/26/2014  10:45 AM  IA-WR-5  Hartford 1.0 ENE  0.04 1.8 2.0 IAWarren  View